Time;durP1;ratioP1;P1;durP2;ratioP2;P2;SDS_P1;SDS_P2;PMS_P1;PMS_P2;Temp;Humidity;BMP_temperature;BMP_pressure;BME280_temperature;BME280_humidity;BME280_pressure;Samples;Min_cycle;Max_cycle;Signal;HPM_P1;HPM_P2
2022/09/21 00:00:53;;;;;;;17.67;3.83;;;9.00;89.20;;;;;;5035335;28;20176;-87
2022/09/21 00:03:18;;;;;;;41.80;4.33;;;9.00;89.80;;;;;;5035451;28;20192;-87
2022/09/21 00:05:44;;;;;;;40.77;3.90;;;8.90;89.80;;;;;;5035618;28;20204;-86
2022/09/21 00:08:12;;;;;;;45.40;3.70;;;8.80;89.70;;;;;;5035798;28;20196;-87
2022/09/21 00:10:38;;;;;;;3.97;2.60;;;8.80;89.80;;;;;;5035408;28;20643;-87
2022/09/21 00:13:05;;;;;;;6.93;2.30;;;8.80;89.80;;;;;;5037107;28;20184;-87
2022/09/21 00:15:31;;;;;;;4.20;2.30;;;8.80;89.60;;;;;;5037111;28;20169;-87
2022/09/21 00:17:58;;;;;;;2.93;2.07;;;8.80;89.50;;;;;;5035272;28;20224;-87
2022/09/21 00:20:25;;;;;;;4.70;2.37;;;8.80;89.30;;;;;;5034931;28;20665;-87
2022/09/21 00:22:51;;;;;;;3.13;2.00;;;8.70;88.90;;;;;;5035005;28;20173;-87
2022/09/21 00:25:18;;;;;;;3.73;2.17;;;8.60;88.40;;;;;;5035470;28;20263;-87
2022/09/21 00:27:44;;;;;;;4.00;2.23;;;8.60;88.10;;;;;;5036260;28;20197;-87
2022/09/21 00:30:11;;;;;;;7.67;3.07;;;8.50;87.70;;;;;;5035071;28;20276;-87
2022/09/21 00:32:38;;;;;;;4.43;3.23;;;8.50;87.50;;;;;;5035736;28;20176;-87
2022/09/21 00:35:06;;;;;;;3.83;2.73;;;8.40;87.40;;;;;;5036399;28;20640;-88
2022/09/21 00:37:32;;;;;;;4.83;2.80;;;8.40;87.20;;;;;;5035592;28;20215;-90
2022/09/21 00:39:58;;;;;;;2.80;2.40;;;8.40;87.00;;;;;;5035496;28;20193;-88
2022/09/21 00:42:27;;;;;;;5.57;2.60;;;8.30;86.80;;;;;;5034122;28;20227;-89
2022/09/21 00:44:53;;;;;;;4.07;2.30;;;8.30;86.60;;;;;;5034692;28;20181;-87
2022/09/21 00:47:26;;;;;;;6.17;2.73;;;8.30;86.40;;;;;;5034908;28;20227;-88
2022/09/21 00:49:54;;;;;;;5.00;2.23;;;8.30;86.20;;;;;;5034545;28;20176;-87
2022/09/21 00:52:41;;;;;;;2.43;2.23;;;8.30;85.90;;;;;;5035820;28;20581;-88
2022/09/21 00:55:13;;;;;;;2.60;2.13;;;8.20;85.60;;;;;;5035367;28;20247;-87
2022/09/21 00:57:39;;;;;;;2.63;2.20;;;8.20;85.40;;;;;;5035052;28;20209;-87
2022/09/21 01:00:08;;;;;;;4.57;2.73;;;8.20;85.10;;;;;;5033914;28;20181;-87
2022/09/21 01:02:35;;;;;;;3.03;1.80;;;8.10;84.80;;;;;;5033902;28;20174;-88
2022/09/21 01:05:03;;;;;;;1.83;1.70;;;8.10;84.60;;;;;;5034908;28;20547;-87
2022/09/21 01:07:32;;;;;;;3.40;2.00;;;8.00;84.30;;;;;;5033494;28;20307;-88
2022/09/21 01:10:01;;;;;;;6.17;2.10;;;7.90;84.20;;;;;;5034967;28;20552;-88
2022/09/21 01:12:48;;;;;;;6.60;2.37;;;7.80;84.50;;;;;;5033785;28;20180;-88
2022/09/21 01:15:28;;;;;;;2.53;2.30;;;7.70;84.60;;;;;;5033466;28;20260;-88
2022/09/21 01:18:05;;;;;;;2.50;2.00;;;7.70;84.90;;;;;;5033548;28;20211;-88
2022/09/21 01:21:07;;;;;;;6.17;2.80;;;7.70;84.90;;;;;;5034838;28;20226;-87
2022/09/21 01:24:01;;;;;;;4.47;2.60;;;7.60;84.90;;;;;;5034864;28;20157;-88
2022/09/21 01:27:08;;;;;;;4.97;2.60;;;7.50;84.90;;;;;;5033205;28;20203;-88
2022/09/21 01:29:42;;;;;;;4.70;3.53;;;7.50;84.80;;;;;;5028813;28;20211;-87
2022/09/21 01:32:22;;;;;;;3.60;3.00;;;7.50;84.90;;;;;;5034825;28;20157;-88
2022/09/21 01:35:09;;;;;;;3.80;2.97;;;7.50;85.00;;;;;;5033280;28;20172;-88
2022/09/21 01:37:39;;;;;;;5.00;2.60;;;7.50;84.90;;;;;;5034558;28;20227;-88
2022/09/21 01:40:20;;;;;;;2.70;2.47;;;7.50;84.70;;;;;;5033287;28;20263;-88
2022/09/21 01:42:49;;;;;;;3.17;2.87;;;7.50;84.60;;;;;;5033354;28;20564;-87
2022/09/21 01:45:19;;;;;;;3.90;2.80;;;7.50;84.40;;;;;;5033022;28;20180;-87
2022/09/21 01:47:48;;;;;;;5.90;3.57;;;7.50;84.30;;;;;;5032899;28;20295;-87
2022/09/21 01:50:17;;;;;;;3.70;2.93;;;7.50;84.10;;;;;;5032793;28;20231;-88
2022/09/21 01:52:54;;;;;;;2.77;2.53;;;7.50;84.00;;;;;;5032823;28;20257;-87
2022/09/21 01:55:41;;;;;;;7.67;3.27;;;7.50;83.80;;;;;;5033071;28;20172;-87
2022/09/21 01:58:19;;;;;;;5.17;2.67;;;7.40;83.80;;;;;;5032902;28;20212;-88
2022/09/21 02:00:47;;;;;;;17.90;3.53;;;7.40;83.90;;;;;;5032849;28;20173;-87
2022/09/21 02:03:35;;;;;;;13.77;4.33;;;7.30;84.40;;;;;;5032165;28;20177;-87
2022/09/21 02:06:03;;;;;;;4.97;3.53;;;7.20;84.90;;;;;;5032525;28;20188;-88
2022/09/21 02:08:31;;;;;;;5.17;3.40;;;7.10;85.10;;;;;;5032392;28;20726;-87
2022/09/21 02:10:58;;;;;;;3.87;3.20;;;7.20;85.20;;;;;;5032477;28;20180;-88
2022/09/21 02:13:27;;;;;;;5.23;3.40;;;7.20;85.20;;;;;;5032493;28;20181;-88
2022/09/21 02:16:19;;;;;;;9.23;3.47;;;7.20;85.20;;;;;;5033607;28;20181;-87
2022/09/21 02:19:10;;;;;;;10.00;4.70;;;7.20;85.10;;;;;;5032469;28;20184;-88
2022/09/21 02:21:56;;;;;;;6.70;4.13;;;7.20;85.10;;;;;;5032359;28;20195;-88
2022/09/21 02:24:42;;;;;;;4.30;3.90;;;7.20;85.00;;;;;;5032438;28;20176;-87
2022/09/21 02:27:46;;;;;;;4.97;3.10;;;7.20;84.90;;;;;;5033706;28;20201;-87
2022/09/21 02:30:14;;;;;;;6.93;3.83;;;7.20;84.90;;;;;;5033600;28;20654;-88
2022/09/21 02:33:14;;;;;;;3.53;3.23;;;7.30;84.70;;;;;;5032088;28;20199;-87
2022/09/21 02:35:47;;;;;;;5.37;4.03;;;7.30;84.70;;;;;;5032346;28;20208;-87
2022/09/21 02:38:28;;;;;;;4.10;3.80;;;7.20;84.60;;;;;;5033336;28;20675;-87
2022/09/21 02:41:11;;;;;;;6.77;4.00;;;7.20;84.60;;;;;;5032314;28;20161;-88
2022/09/21 02:43:46;;;;;;;6.00;4.37;;;7.20;84.70;;;;;;5032279;28;20168;-90
2022/09/21 02:46:28;;;;;;;6.67;4.10;;;7.10;84.70;;;;;;5033550;28;20196;-88
2022/09/21 02:48:59;;;;;;;5.03;3.63;;;7.10;84.80;;;;;;5033448;28;20161;-87
2022/09/21 02:51:30;;;;;;;7.87;4.07;;;7.10;84.80;;;;;;5032895;28;20576;-87
2022/09/21 02:53:57;;;;;;;7.77;5.07;;;7.10;84.90;;;;;;5031981;28;20515;-87
2022/09/21 02:56:23;;;;;;;6.67;4.70;;;7.10;85.00;;;;;;5033477;28;20197;-87
2022/09/21 02:58:53;;;;;;;6.27;4.40;;;7.20;85.00;;;;;;5033213;28;20207;-87
2022/09/21 03:01:20;;;;;;;8.70;5.10;;;7.30;85.20;;;;;;5033343;28;20169;-89
2022/09/21 03:03:46;;;;;;;12.30;4.90;;;7.30;85.30;;;;;;5033128;28;20179;-88
2022/09/21 03:06:12;;;;;;;11.67;5.70;;;7.30;85.60;;;;;;5032073;28;20288;-88
2022/09/21 03:08:37;;;;;;;6.43;4.83;;;7.30;85.90;;;;;;5031980;28;20184;-88
2022/09/21 03:11:03;;;;;;;5.80;4.60;;;7.30;86.00;;;;;;5033353;28;20226;-87
2022/09/21 03:13:29;;;;;;;6.03;4.93;;;7.30;85.90;;;;;;5032002;28;20655;-87
2022/09/21 03:16:06;;;;;;;4.50;4.10;;;7.30;85.90;;;;;;5034710;28;20177;-87
2022/09/21 03:18:32;;;;;;;4.27;3.87;;;7.30;86.00;;;;;;5036739;28;20246;-87
2022/09/21 03:20:58;;;;;;;4.30;3.90;;;7.30;86.00;;;;;;5035993;28;20208;-88
2022/09/21 03:23:23;;;;;;;3.90;3.60;;;7.30;86.10;;;;;;5035606;28;20253;-87
2022/09/21 03:25:51;;;;;;;6.30;4.10;;;7.30;86.20;;;;;;5036675;28;20173;-87
2022/09/21 03:28:17;;;;;;;3.60;3.30;;;7.30;86.30;;;;;;5036506;28;20533;-88
2022/09/21 03:30:42;;;;;;;7.07;3.40;;;7.30;86.50;;;;;;5036923;28;20256;-87
2022/09/21 03:33:08;;;;;;;4.40;4.00;;;7.30;86.60;;;;;;5035411;28;20601;-88
2022/09/21 03:35:34;;;;;;;7.23;3.83;;;7.30;86.60;;;;;;5035252;28;20177;-88
2022/09/21 03:38:00;;;;;;;6.40;4.07;;;7.30;86.70;;;;;;5035134;28;20212;-87
2022/09/21 03:40:26;;;;;;;6.17;4.00;;;7.30;86.80;;;;;;5036416;28;20177;-87
2022/09/21 03:42:53;;;;;;;6.27;4.17;;;7.30;87.00;;;;;;5035272;28;20172;-88
2022/09/21 03:45:20;;;;;;;11.70;4.80;;;7.30;87.10;;;;;;5035255;28;20272;-88
2022/09/21 03:47:46;;;;;;;24.87;4.40;;;7.30;87.20;;;;;;5036366;28;20184;-87
2022/09/21 03:50:12;;;;;;;68.97;6.00;;;7.30;87.50;;;;;;5035120;28;20679;-87
2022/09/21 03:52:38;;;;;;;66.73;5.63;;;7.10;87.80;;;;;;5036196;28;20646;-88
2022/09/21 03:55:05;;;;;;;60.23;5.27;;;7.00;88.20;;;;;;5036175;28;20169;-88
2022/09/21 03:57:35;;;;;;;25.03;4.83;;;7.00;88.50;;;;;;5035014;28;20261;-88
2022/09/21 04:00:02;;;;;;;36.70;4.77;;;7.00;88.70;;;;;;5034890;28;20180;-87
2022/09/21 04:02:29;;;;;;;17.07;3.77;;;7.10;88.90;;;;;;5035971;28;20176;-87
2022/09/21 04:04:54;;;;;;;18.70;4.23;;;7.00;89.00;;;;;;5036092;28;20529;-88
2022/09/21 04:07:20;;;;;;;17.63;5.27;;;6.90;89.20;;;;;;5035471;28;20211;-88
2022/09/21 04:09:45;;;;;;;20.33;4.67;;;6.90;89.60;;;;;;5035914;28;20168;-87
2022/09/21 04:12:11;;;;;;;22.17;4.57;;;7.00;89.80;;;;;;5034584;28;20219;-88
2022/09/21 04:14:37;;;;;;;9.23;4.43;;;7.00;89.90;;;;;;5034634;28;20231;-87
2022/09/21 04:17:03;;;;;;;21.67;5.30;;;7.00;90.00;;;;;;5034427;28;20578;-87
2022/09/21 04:19:28;;;;;;;9.57;5.23;;;7.00;90.10;;;;;;5034334;28;20173;-87
2022/09/21 04:21:55;;;;;;;8.80;5.50;;;7.00;90.10;;;;;;5034405;28;20263;-88
2022/09/21 04:24:20;;;;;;;7.30;5.30;;;7.00;90.20;;;;;;5035686;28;20172;-87
2022/09/21 04:26:46;;;;;;;4.83;4.27;;;7.00;90.30;;;;;;5034023;28;20197;-87
2022/09/21 04:29:13;;;;;;;11.63;4.70;;;7.00;90.30;;;;;;5035497;28;20189;-88
2022/09/21 04:31:39;;;;;;;9.37;4.97;;;7.00;90.20;;;;;;5034386;28;20219;-87
2022/09/21 04:34:05;;;;;;;7.37;4.70;;;6.90;90.20;;;;;;5035560;28;20172;-87
2022/09/21 04:36:31;;;;;;;9.27;4.13;;;7.00;90.30;;;;;;5034034;28;20197;-88
2022/09/21 04:38:59;;;;;;;5.90;4.70;;;7.10;90.30;;;;;;5034116;28;20184;-87
2022/09/21 04:41:25;;;;;;;9.03;5.00;;;7.20;90.30;;;;;;5035616;28;20585;-88
2022/09/21 04:43:51;;;;;;;8.30;5.23;;;7.20;90.30;;;;;;5035641;28;20263;-87
2022/09/21 04:46:18;;;;;;;5.90;4.70;;;7.30;90.30;;;;;;5034070;28;20228;-87
2022/09/21 04:48:45;;;;;;;6.43;5.60;;;7.30;90.30;;;;;;5035312;28;20264;-87
2022/09/21 04:51:12;;;;;;;4.90;4.50;;;7.30;90.30;;;;;;5035316;28;20224;-87
2022/09/21 04:53:39;;;;;;;9.33;4.37;;;7.40;90.30;;;;;;5034115;28;20180;-88
2022/09/21 04:56:06;;;;;;;5.47;4.40;;;7.40;90.30;;;;;;5034975;28;20246;-87
2022/09/21 04:58:32;;;;;;;15.57;5.47;;;7.40;90.20;;;;;;5033853;28;20598;-87
2022/09/21 05:00:58;;;;;;;5.03;4.60;;;7.50;90.20;;;;;;5033580;28;20177;-88
2022/09/21 05:03:24;;;;;;;5.30;4.80;;;7.50;90.20;;;;;;5035023;28;20611;-88
2022/09/21 05:05:53;;;;;;;39.73;4.77;;;7.50;90.10;;;;;;5035104;28;20204;-87
2022/09/21 05:10:01;;;;;;;11.20;3.70;;;7.50;90.10;;;;;;5033642;28;20173;-87
2022/09/21 05:11:05;;;;;;;26.03;4.30;;;7.40;90.10;;;;;;5034486;28;20222;-87
2022/09/21 05:13:31;;;;;;;34.03;5.67;;;7.30;90.20;;;;;;5033916;28;20258;-88
2022/09/21 05:15:56;;;;;;;31.47;5.10;;;7.30;90.30;;;;;;5033386;28;20176;-88
2022/09/21 05:18:22;;;;;;;18.13;4.40;;;7.30;90.40;;;;;;5033249;28;20196;-88
2022/09/21 05:20:55;;;;;;;11.60;4.30;;;7.30;90.50;;;;;;5033303;28;20690;-88
2022/09/21 05:23:21;;;;;;;16.57;4.27;;;7.30;90.60;;;;;;5033233;28;20179;-88
2022/09/21 05:25:47;;;;;;;13.90;4.13;;;7.30;90.60;;;;;;5033149;28;20172;-88
2022/09/21 05:28:13;;;;;;;6.30;3.63;;;7.20;90.70;;;;;;5033769;28;20540;-87
2022/09/21 05:30:38;;;;;;;4.07;3.67;;;7.20;90.80;;;;;;5034279;28;20181;-88
2022/09/21 05:33:06;;;;;;;6.10;3.80;;;7.10;90.90;;;;;;5033574;28;20177;-87
2022/09/21 05:35:41;;;;;;;17.70;4.17;;;7.10;91.10;;;;;;5034264;28;20666;-88
2022/09/21 05:38:18;;;;;;;5.10;3.93;;;7.00;91.20;;;;;;5033268;28;20761;-88
2022/09/21 05:40:49;;;;;;;6.07;3.90;;;7.00;91.30;;;;;;5034547;28;20184;-88
2022/09/21 05:43:15;;;;;;;11.40;4.47;;;7.00;91.40;;;;;;5033024;28;20172;-87
2022/09/21 05:45:44;;;;;;;5.30;4.80;;;7.00;91.50;;;;;;5033059;28;20593;-87
2022/09/21 05:48:17;;;;;;;16.07;5.07;;;6.90;91.60;;;;;;5032869;28;20177;-88
2022/09/21 05:50:42;;;;;;;11.40;5.90;;;6.90;91.80;;;;;;5034115;28;20207;-88
2022/09/21 05:53:22;;;;;;;13.13;5.77;;;6.90;91.90;;;;;;5033795;28;20177;-87
2022/09/21 05:55:55;;;;;;;9.83;5.67;;;7.00;92.00;;;;;;5032617;28;20195;-88
2022/09/21 05:58:50;;;;;;;8.43;5.13;;;7.10;92.10;;;;;;5034097;28;20223;-88
2022/09/21 06:01:22;;;;;;;32.83;5.87;;;7.10;92.20;;;;;;5032688;28;20180;-88
2022/09/21 06:03:49;;;;;;;5.70;5.20;;;7.10;92.20;;;;;;5033741;28;20157;-87
2022/09/21 06:06:16;;;;;;;142.97;9.93;;;7.20;92.30;;;;;;5032818;28;20598;-88
2022/09/21 06:08:41;;;;;;;122.57;10.00;;;7.30;92.40;;;;;;5032396;28;20545;-88
2022/09/21 06:11:07;;;;;;;8.07;6.80;;;7.40;92.40;;;;;;5034093;28;20173;-88
2022/09/21 06:13:32;;;;;;;113.03;9.20;;;7.50;92.50;;;;;;5033835;28;20195;-88
2022/09/21 06:16:02;;;;;;;198.77;11.83;;;7.60;92.50;;;;;;5033557;28;20208;-88
2022/09/21 06:18:27;;;;;;;54.73;8.60;;;7.50;92.50;;;;;;5033692;28;20203;-88
2022/09/21 06:20:53;;;;;;;25.63;7.90;;;7.60;92.70;;;;;;5032439;28;20183;-88
2022/09/21 06:23:18;;;;;;;29.63;8.10;;;7.60;92.70;;;;;;5034333;28;20185;-88
2022/09/21 06:25:50;;;;;;;89.60;10.33;;;7.70;92.80;;;;;;5033529;28;20227;-89
2022/09/21 06:28:15;;;;;;;48.47;7.37;;;7.90;92.90;;;;;;5033486;28;20543;-88
2022/09/21 06:30:42;;;;;;;22.47;8.87;;;7.90;92.90;;;;;;5033560;28;20195;-88
2022/09/21 06:33:08;;;;;;;155.63;14.67;;;8.00;92.90;;;;;;5032247;28;20172;-88
2022/09/21 06:35:34;;;;;;;48.63;13.77;;;8.10;93.00;;;;;;5032208;28;20211;-89
2022/09/21 06:38:05;;;;;;;261.20;17.67;;;8.20;93.10;;;;;;5032085;28;20722;-88
2022/09/21 06:40:32;;;;;;;333.30;19.97;;;8.20;93.10;;;;;;5033499;28;20163;-88
2022/09/21 06:42:59;;;;;;;449.50;27.93;;;8.20;93.20;;;;;;5033401;28;20168;-89
2022/09/21 06:45:26;;;;;;;66.73;15.27;;;8.30;93.30;;;;;;5032613;28;20628;-91
2022/09/21 06:47:51;;;;;;;233.60;19.10;;;8.40;93.50;;;;;;5032087;28;20193;-88
2022/09/21 06:50:18;;;;;;;180.27;19.10;;;8.40;93.50;;;;;;5035694;28;20173;-90
2022/09/21 06:52:44;;;;;;;203.80;21.57;;;8.40;93.60;;;;;;5037572;28;20201;-89
2022/09/21 06:55:10;;;;;;;194.17;16.70;;;8.50;93.70;;;;;;5037137;28;20168;-88
2022/09/21 06:57:39;;;;;;;317.23;20.33;;;8.40;93.70;;;;;;5035911;28;20208;-89
2022/09/21 07:00:08;;;;;;;121.70;13.53;;;8.40;93.90;;;;;;5036051;28;20172;-87
2022/09/21 07:02:34;;;;;;;159.60;17.23;;;8.40;93.90;;;;;;5036204;28;20176;-88
2022/09/21 07:05:00;;;;;;;198.10;17.00;;;8.60;94.10;;;;;;5035598;28;20207;-88
2022/09/21 07:07:29;;;;;;;23.43;13.10;;;8.60;94.20;;;;;;5036834;28;20196;-88
2022/09/21 07:09:57;;;;;;;210.50;17.00;;;8.70;94.30;;;;;;5036066;28;20297;-88
2022/09/21 07:12:24;;;;;;;112.93;13.50;;;8.80;94.30;;;;;;5035655;28;20188;-88
2022/09/21 07:14:49;;;;;;;180.90;17.73;;;8.80;94.30;;;;;;5035705;28;20272;-88
2022/09/21 07:17:15;;;;;;;159.83;17.47;;;8.80;94.30;;;;;;5035537;28;20298;-89
2022/09/21 07:19:40;;;;;;;224.53;17.20;;;9.00;94.40;;;;;;5035482;28;20188;-88
2022/09/21 07:22:06;;;;;;;72.20;13.00;;;9.10;94.50;;;;;;5037121;28;20169;-89
2022/09/21 07:24:32;;;;;;;82.60;13.83;;;9.00;94.40;;;;;;5035683;28;20180;-89
2022/09/21 07:26:58;;;;;;;190.87;16.80;;;9.10;94.50;;;;;;5036723;28;20226;-89
2022/09/21 07:29:23;;;;;;;92.67;17.13;;;9.10;94.50;;;;;;5036611;28;20257;-89
2022/09/21 07:31:49;;;;;;;134.23;16.07;;;9.20;94.60;;;;;;5037088;28;20263;-89
2022/09/21 07:34:15;;;;;;;43.10;15.80;;;9.30;94.60;;;;;;5035682;28;20179;-89
2022/09/21 07:36:41;;;;;;;76.13;16.00;;;9.20;94.60;;;;;;5037255;28;20193;-89
2022/09/21 07:39:08;;;;;;;41.03;17.67;;;9.30;94.60;;;;;;5036530;28;20259;-88
2022/09/21 07:41:34;;;;;;;30.67;15.47;;;9.30;94.60;;;;;;5035299;28;20177;-89
2022/09/21 07:44:00;;;;;;;67.47;16.90;;;9.40;94.70;;;;;;5036460;28;20172;-88
2022/09/21 07:46:26;;;;;;;35.20;14.97;;;9.50;94.70;;;;;;5036319;28;20196;-89
2022/09/21 07:48:55;;;;;;;52.07;17.27;;;9.60;94.70;;;;;;5035079;28;20172;-87
2022/09/21 07:51:22;;;;;;;54.03;14.47;;;9.70;94.80;;;;;;5036545;28;20173;-88
2022/09/21 07:53:55;;;;;;;57.23;16.20;;;9.60;94.70;;;;;;5036486;28;20620;-87
2022/09/21 07:56:21;;;;;;;21.37;15.83;;;9.60;94.70;;;;;;5036650;28;20201;-87
2022/09/21 07:59:05;;;;;;;42.30;17.73;;;9.80;94.80;;;;;;5034941;28;20208;-88
2022/09/21 08:01:33;;;;;;;50.67;17.03;;;10.00;94.80;;;;;;5034166;28;20169;-87
2022/09/21 08:03:59;;;;;;;65.33;19.97;;;10.00;94.80;;;;;;5036893;28;20599;-87
2022/09/21 08:06:27;;;;;;;21.07;15.73;;;10.20;94.80;;;;;;5035089;28;20200;-88
2022/09/21 08:08:52;;;;;;;43.93;17.03;;;10.10;94.70;;;;;;5034652;28;20188;-89
2022/09/21 08:11:21;;;;;;;29.63;16.80;;;10.30;94.80;;;;;;5035938;28;20172;-87
2022/09/21 08:13:53;;;;;;;20.83;16.37;;;10.30;94.80;;;;;;5036316;28;20169;-88
2022/09/21 08:16:19;;;;;;;21.83;17.07;;;10.40;94.80;;;;;;5036134;28;20698;-89
2022/09/21 08:18:44;;;;;;;46.17;21.70;;;10.60;94.80;;;;;;5034600;28;20204;-89
2022/09/21 08:21:11;;;;;;;38.00;18.73;;;10.80;94.90;;;;;;5035096;28;20216;-88
2022/09/21 08:23:39;;;;;;;23.00;18.00;;;10.70;94.70;;;;;;5036283;28;20177;-87
2022/09/21 08:26:06;;;;;;;34.47;18.77;;;10.50;94.60;;;;;;5037743;28;20180;-87
2022/09/21 08:28:39;;;;;;;41.50;23.77;;;10.50;94.60;;;;;;5036449;28;20254;-87
2022/09/21 08:31:07;;;;;;;47.33;30.47;;;10.50;94.60;;;;;;5036350;28;20184;-90
2022/09/21 08:33:33;;;;;;;37.93;25.10;;;10.70;94.70;;;;;;5034291;28;20658;-89
2022/09/21 08:35:59;;;;;;;40.30;24.60;;;10.60;94.60;;;;;;5035017;28;20195;-89
2022/09/21 08:38:26;;;;;;;41.20;25.80;;;10.80;94.70;;;;;;5035856;28;20211;-87
2022/09/21 08:40:52;;;;;;;35.77;23.83;;;10.90;94.70;;;;;;5036373;28;20650;-87
2022/09/21 08:43:39;;;;;;;37.93;23.53;;;11.00;94.70;;;;;;5035812;28;20183;-87
2022/09/21 08:46:27;;;;;;;31.97;20.70;;;11.10;94.70;;;;;;5036902;28;20211;-88
2022/09/21 08:49:02;;;;;;;32.87;21.30;;;11.20;94.60;;;;;;5035091;28;20177;-87
2022/09/21 08:51:34;;;;;;;29.97;20.87;;;11.20;94.60;;;;;;5035876;28;20187;-87
2022/09/21 08:54:06;;;;;;;33.23;22.33;;;11.30;94.60;;;;;;5035152;28;20177;-88
2022/09/21 08:56:31;;;;;;;31.47;20.63;;;11.40;94.60;;;;;;5035103;28;20204;-88
2022/09/21 08:58:57;;;;;;;27.90;20.40;;;11.60;94.60;;;;;;5034845;28;20176;-88
2022/09/21 09:01:58;;;;;;;31.23;22.50;;;11.50;94.40;;;;;;5033805;28;20176;-88
2022/09/21 09:04:33;;;;;;;37.13;27.60;;;11.60;94.60;;;;;;5033605;28;20168;-88
2022/09/21 09:07:20;;;;;;;44.47;30.07;;;11.70;94.50;;;;;;5037105;28;20200;-93
2022/09/21 09:10:06;;;;;;;41.17;29.57;;;11.80;94.40;;;;;;5042360;28;20169;-93
2022/09/21 09:13:00;;;;;;;33.83;24.10;;;12.10;94.50;;;;;;5042262;28;20296;-92
2022/09/21 09:15:46;;;;;;;26.73;19.73;;;12.20;94.40;;;;;;5030985;28;20260;-91
2022/09/21 09:18:32;;;;;;;28.00;20.33;;;12.40;94.40;;;;;;5035011;28;20197;-87
2022/09/21 09:21:08;;;;;;;27.03;18.93;;;12.70;94.30;;;;;;5035073;28;20161;-88
2022/09/21 09:23:40;;;;;;;24.67;17.13;;;12.80;94.20;;;;;;5033402;28;20161;-90
2022/09/21 09:26:13;;;;;;;25.20;16.90;;;12.80;93.90;;;;;;5034126;28;20195;-89
2022/09/21 09:28:57;;;;;;;22.43;14.23;;;12.90;93.80;;;;;;5034982;28;20246;-92
2022/09/21 09:31:29;;;;;;;18.17;12.27;;;13.00;93.10;;;;;;5035257;28;20269;-89
2022/09/21 09:34:02;;;;;;;23.57;13.43;;;13.20;93.10;;;;;;5032870;28;20196;-88
2022/09/21 09:36:32;;;;;;;18.53;12.77;;;13.30;92.20;;;;;;5032884;28;20192;-89
2022/09/21 09:39:01;;;;;;;15.27;11.50;;;13.50;91.70;;;;;;5033201;28;20200;-87
2022/09/21 09:41:41;;;;;;;13.90;10.23;;;13.70;91.20;;;;;;5033095;28;20173;-88
2022/09/21 09:44:40;;;;;;;16.13;8.53;;;13.70;90.10;;;;;;5034080;28;20160;-88
2022/09/21 09:47:17;;;;;;;8.43;7.23;;;13.70;89.10;;;;;;5034320;28;20211;-88
2022/09/21 09:49:49;;;;;;;10.43;3.80;;;14.10;89.00;;;;;;5032737;28;20781;-88
2022/09/21 09:52:15;;;;;;;9.57;4.10;;;14.30;88.40;;;;;;5034052;28;20545;-88
2022/09/21 09:54:41;;;;;;;5.27;3.60;;;14.30;86.00;;;;;;5032675;28;20187;-87
2022/09/21 09:57:09;;;;;;;8.73;4.10;;;14.60;84.90;;;;;;5033859;28;20205;-87
2022/09/21 09:59:42;;;;;;;8.93;4.57;;;14.80;83.80;;;;;;5033674;28;20176;-89
2022/09/21 10:02:22;;;;;;;7.57;3.55;;;15.00;83.90;;;;;;5032433;28;20201;-89
2022/09/21 10:05:08;;;;;;;6.27;3.83;;;15.00;82.30;;;;;;5033985;28;20646;-89
2022/09/21 10:07:44;;;;;;;5.68;3.17;;;15.20;81.90;;;;;;5033494;28;20690;-88
2022/09/21 10:10:31;;;;;;;8.13;2.65;;;15.00;77.70;;;;;;5032397;28;20179;-88
2022/09/21 10:13:23;;;;;;;5.20;2.90;;;15.20;77.10;;;;;;5033474;28;20157;-88
2022/09/21 10:15:58;;;;;;;5.40;1.85;;;15.20;76.70;;;;;;5032459;28;20234;-89
2022/09/21 10:18:37;;;;;;;6.63;2.10;;;15.50;74.40;;;;;;5032266;28;20250;-87
2022/09/21 10:21:14;;;;;;;6.32;2.33;;;15.40;73.10;;;;;;5032230;28;20241;-88
2022/09/21 10:23:46;;;;;;;4.38;2.10;;;15.50;74.50;;;;;;5031960;28;20267;-88
2022/09/21 10:26:13;;;;;;;5.13;2.55;;;15.70;74.80;;;;;;5033548;28;20639;-88
2022/09/21 10:29:14;;;;;;;6.30;2.55;;;15.80;74.80;;;;;;5032204;28;20184;-86
2022/09/21 10:31:58;;;;;;;7.60;3.22;;;16.00;72.90;;;;;;5012384;28;20671;-87
2022/09/21 10:34:26;;;;;;;5.93;2.53;;;16.10;74.10;;;;;;5035308;28;20619;-87
2022/09/21 10:36:55;;;;;;;6.75;2.75;;;16.00;73.40;;;;;;5032247;28;20686;-87
2022/09/21 10:39:27;;;;;;;5.30;1.95;;;16.20;71.20;;;;;;5032269;28;20177;-87
2022/09/21 10:42:03;;;;;;;2.75;1.80;;;16.40;72.10;;;;;;5032089;28;20169;-88
2022/09/21 10:44:43;;;;;;;7.47;2.42;;;16.30;69.60;;;;;;5032362;28;20580;-88
2022/09/21 10:47:18;;;;;;;8.55;2.20;;;16.50;69.50;;;;;;5032491;28;20200;-87
2022/09/21 10:49:49;;;;;;;5.97;1.73;;;16.70;71.00;;;;;;5032084;28;20172;-87
2022/09/21 10:52:17;;;;;;;2.72;1.20;;;17.10;70.70;;;;;;5033134;28;20153;-87
2022/09/21 10:54:46;;;;;;;2.72;1.35;;;17.30;68.50;;;;;;5031985;28;20176;-87
2022/09/21 10:57:16;;;;;;;3.95;1.45;;;17.40;65.70;;;;;;5033021;28;20619;-88
2022/09/21 10:59:43;;;;;;;4.30;1.50;;;17.50;64.30;;;;;;5032021;28;20196;-87
2022/09/21 11:02:32;;;;;;;5.70;1.67;;;17.60;65.20;;;;;;5031907;28;20179;-87
2022/09/21 11:05:10;;;;;;;2.15;1.20;;;17.70;62.00;;;;;;5031774;28;20165;-87
2022/09/21 11:07:46;;;;;;;1.55;1.10;;;17.60;61.00;;;;;;5031759;28;20258;-87
2022/09/21 11:10:39;;;;;;;5.25;1.45;;;16.80;60.00;;;;;;5031745;28;20173;-87
2022/09/21 11:13:07;;;;;;;7.63;1.65;;;17.10;63.20;;;;;;5031939;28;20196;-87
2022/09/21 11:15:47;;;;;;;8.75;1.40;;;17.30;62.80;;;;;;5031793;28;20176;-87
2022/09/21 11:18:42;;;;;;;2.80;1.30;;;17.70;62.90;;;;;;5031557;28;20243;-87
2022/09/21 11:21:39;;;;;;;7.20;1.00;;;17.80;60.40;;;;;;5032842;28;20299;-87
2022/09/21 11:24:48;;;;;;;2.63;1.33;;;17.70;59.50;;;;;;5032492;28;20184;-87
2022/09/21 11:27:17;;;;;;;2.10;0.98;;;17.90;58.40;;;;;;5032312;28;20243;-86
2022/09/21 11:30:02;;;;;;;2.05;0.80;;;18.10;58.50;;;;;;5031388;28;20193;-87
2022/09/21 11:32:39;;;;;;;3.25;1.00;;;18.20;59.30;;;;;;5031575;28;20177;-87
2022/09/21 11:35:32;;;;;;;1.77;0.70;;;18.10;58.30;;;;;;5031784;28;20169;-86
2022/09/21 11:38:12;;;;;;;5.57;0.90;;;17.80;56.40;;;;;;5034552;28;20686;-87
2022/09/21 11:41:05;;;;;;;3.17;0.80;;;18.20;59.80;;;;;;5036376;28;20232;-87
2022/09/21 11:43:54;;;;;;;7.95;0.95;;;18.50;58.40;;;;;;5034918;28;20650;-87
2022/09/21 11:46:57;;;;;;;4.95;0.88;;;18.50;57.00;;;;;;5034858;28;20204;-88
2022/09/21 11:49:44;;;;;;;3.67;0.90;;;18.50;54.90;;;;;;5036194;28;20173;-87
2022/09/21 11:52:25;;;;;;;2.28;0.90;;;18.50;54.90;;;;;;5036170;28;20176;-87
2022/09/21 11:55:05;;;;;;;5.43;2.20;;;18.30;55.80;;;;;;5034665;28;20618;-87
2022/09/21 11:57:34;;;;;;;8.40;5.53;;;18.70;58.60;;;;;;5034626;28;20211;-86
2022/09/21 12:00:18;;;;;;;3.15;1.23;;;18.50;54.10;;;;;;5035707;28;20188;-87
2022/09/21 12:03:14;;;;;;;2.78;1.00;;;18.90;58.80;;;;;;5035799;28;20214;-87
2022/09/21 12:06:14;;;;;;;5.57;1.00;;;18.80;52.90;;;;;;5034507;28;20168;-87
2022/09/21 12:08:51;;;;;;;1.95;0.90;;;18.80;55.00;;;;;;5036158;28;20187;-87
2022/09/21 12:11:32;;;;;;;2.92;0.73;;;19.30;55.50;;;;;;5034401;28;20168;-87
2022/09/21 12:14:18;;;;;;;5.18;1.00;;;19.70;56.20;;;;;;5035935;28;20240;-87
2022/09/21 12:17:04;;;;;;;2.00;0.90;;;19.30;52.90;;;;;;5034929;28;20203;-87
2022/09/21 12:20:09;;;;;;;2.92;0.60;;;19.60;54.00;;;;;;5034256;28;20250;-87
2022/09/21 12:22:40;;;;;;;3.88;0.70;;;19.50;49.40;;;;;;5035560;28;20620;-87
2022/09/21 12:25:24;;;;;;;4.28;0.75;;;19.30;50.10;;;;;;5034149;28;20169;-87
2022/09/21 12:28:01;;;;;;;4.45;0.90;;;19.20;50.80;;;;;;5034830;28;20201;-87
2022/09/21 12:30:30;;;;;;;1.65;0.63;;;19.10;50.50;;;;;;5035137;28;20192;-87
2022/09/21 12:33:20;;;;;;;2.47;0.88;;;19.00;48.50;;;;;;5034095;28;20178;-87
2022/09/21 12:35:51;;;;;;;2.17;0.80;;;19.20;52.00;;;;;;5035078;28;20157;-88
2022/09/21 12:38:22;;;;;;;2.70;1.02;;;19.00;50.30;;;;;;5033930;28;20192;-88
2022/09/21 12:40:54;;;;;;;2.40;1.02;;;19.00;51.50;;;;;;5034621;28;20164;-88
2022/09/21 12:43:25;;;;;;;5.32;0.70;;;18.90;52.70;;;;;;5033843;28;20177;-88
2022/09/21 12:46:00;;;;;;;2.45;0.98;;;18.70;54.50;;;;;;5033734;28;20169;-88
2022/09/21 12:48:33;;;;;;;3.10;0.70;;;18.80;53.40;;;;;;5034726;28;20161;-88
2022/09/21 12:51:04;;;;;;;0.85;0.73;;;19.10;54.70;;;;;;5033872;28;20544;-88
2022/09/21 12:53:34;;;;;;;1.95;0.88;;;19.00;54.70;;;;;;5036715;28;20535;-88
2022/09/21 12:56:28;;;;;;;3.03;1.10;;;18.70;54.50;;;;;;5034883;28;20169;-89
2022/09/21 12:59:15;;;;;;;1.55;0.80;;;18.50;54.10;;;;;;5033508;28;20246;-88
2022/09/21 13:01:51;;;;;;;1.60;1.10;;;18.40;54.50;;;;;;5034759;28;20207;-88
2022/09/21 13:04:25;;;;;;;2.50;1.00;;;18.40;53.80;;;;;;5034686;28;20681;-88
2022/09/21 13:07:16;;;;;;;3.67;0.75;;;18.30;54.90;;;;;;5034715;28;20192;-89
2022/09/21 13:09:44;;;;;;;1.95;0.90;;;18.80;55.50;;;;;;5034566;28;20161;-88
2022/09/21 13:12:22;;;;;;;3.25;0.90;;;19.00;52.40;;;;;;5034741;28;20183;-87
2022/09/21 13:14:52;;;;;;;2.17;0.90;;;18.90;50.90;;;;;;5034959;28;20236;-88